createdAt,value
2022-08-25T00:02:13.156Z,23.01
2022-08-25T00:04:40.380Z,23.05
2022-08-25T00:07:07.950Z,23.10
2022-08-25T00:09:35.898Z,23.15
2022-08-25T00:12:04.117Z,23.17
2022-08-25T00:14:37.261Z,23.24
2022-08-25T00:17:05.665Z,23.19
2022-08-25T00:19:35.617Z,23.14
2022-08-25T00:22:03.042Z,23.11
2022-08-25T00:24:30.533Z,23.17
2022-08-25T00:26:58.746Z,23.13
2022-08-25T00:29:26.923Z,23.02
2022-08-25T00:31:55.015Z,23.03
2022-08-25T00:34:25.644Z,23.06
2022-08-25T00:36:53.869Z,23.01
2022-08-25T00:39:23.195Z,23.06
2022-08-25T00:41:52.741Z,23.04
2022-08-25T00:44:20.206Z,23.03
2022-08-25T00:46:50.164Z,23.07
2022-08-25T00:49:32.526Z,23.11
2022-08-25T00:52:07.310Z,23.10
2022-08-25T00:54:39.501Z,23.04
2022-08-25T00:57:08.825Z,23.02
2022-08-25T00:59:35.707Z,23.00
2022-08-25T01:02:04.390Z,22.94
2022-08-25T01:04:31.681Z,22.92
2022-08-25T01:07:00.500Z,22.87
2022-08-25T01:09:29.254Z,22.79
2022-08-25T01:11:56.712Z,22.78
2022-08-25T01:14:25.328Z,22.79
2022-08-25T01:16:53.747Z,22.79
2022-08-25T01:19:21.286Z,22.83
2022-08-25T01:21:50.104Z,22.86
2022-08-25T01:24:36.865Z,22.83
2022-08-25T01:27:03.934Z,22.85
2022-08-25T01:29:30.900Z,22.83
2022-08-25T01:32:01.443Z,22.79
2022-08-25T01:34:30.804Z,22.80
2022-08-25T01:36:58.555Z,22.74
2022-08-25T01:39:28.169Z,22.76
2022-08-25T01:42:03.093Z,22.79
2022-08-25T01:44:31.316Z,22.63
2022-08-25T01:46:57.882Z,22.60
2022-08-25T01:49:24.666Z,22.53
2022-08-25T01:52:02.066Z,22.50
2022-08-25T01:54:28.767Z,22.51
2022-08-25T01:56:55.618Z,22.48
2022-08-25T01:59:24.308Z,22.48
2022-08-25T02:01:51.891Z,22.57
2022-08-25T02:04:26.915Z,22.50
2022-08-25T02:06:53.433Z,22.48
2022-08-25T02:09:20.056Z,22.44
2022-08-25T02:11:47.910Z,22.44
2022-08-25T02:14:15.599Z,22.43
2022-08-25T02:16:46.606Z,22.50
2022-08-25T02:19:13.662Z,22.47
2022-08-25T02:21:40.412Z,22.48
2022-08-25T02:24:08.097Z,22.47
2022-08-25T02:26:36.440Z,22.47
2022-08-25T02:29:04.929Z,22.45
2022-08-25T02:31:31.846Z,22.38
2022-08-25T02:33:58.586Z,22.43
2022-08-25T02:36:25.252Z,22.38
2022-08-25T02:38:51.984Z,22.32
2022-08-25T02:41:25.201Z,22.38
2022-08-25T02:43:58.026Z,22.27
2022-08-25T02:46:25.076Z,22.20
2022-08-25T02:48:52.896Z,22.14
2022-08-25T02:51:21.972Z,22.18
2022-08-25T02:53:49.881Z,22.16
2022-08-25T02:56:18.853Z,22.11
2022-08-25T02:58:46.614Z,22.14
2022-08-25T03:01:14.853Z,22.16
2022-08-25T03:03:44.341Z,22.18
2022-08-25T03:06:13.891Z,22.14
2022-08-25T03:08:42.325Z,22.14
2022-08-25T03:11:10.108Z,22.05
2022-08-25T03:13:37.370Z,22.02
2022-08-25T03:16:05.610Z,22.00
2022-08-25T03:18:39.457Z,22.01
2022-08-25T03:21:07.467Z,22.04
2022-08-25T03:23:34.562Z,21.95
2022-08-25T03:26:20.825Z,21.96
2022-08-25T03:28:47.504Z,21.90
2022-08-25T03:31:14.083Z,21.97
2022-08-25T03:33:40.852Z,21.98
2022-08-25T03:36:08.802Z,21.94
2022-08-25T03:38:38.189Z,21.90
2022-08-25T03:41:21.624Z,21.95
2022-08-25T03:43:49.025Z,21.93
2022-08-25T03:46:25.369Z,21.82
2022-08-25T03:48:52.489Z,21.84
2022-08-25T03:51:40.359Z,21.81
2022-08-25T03:54:08.559Z,21.82
2022-08-25T03:56:35.547Z,21.67
2022-08-25T03:59:04.240Z,21.77
2022-08-25T04:01:30.939Z,21.79
2022-08-25T04:03:57.664Z,21.83
2022-08-25T04:06:24.272Z,21.70
2022-08-25T04:08:52.707Z,21.64
2022-08-25T04:11:21.950Z,21.60
2022-08-25T04:13:49.333Z,21.58
2022-08-25T04:16:28.419Z,21.59
2022-08-25T04:18:55.423Z,21.45
2022-08-25T04:21:22.979Z,21.37
2022-08-25T04:23:51.192Z,21.35
2022-08-25T04:26:24.918Z,21.35
2022-08-25T04:28:51.654Z,21.42
2022-08-25T04:31:20.516Z,21.47
2022-08-25T04:33:48.079Z,21.41
2022-08-25T04:36:17.154Z,21.41
2022-08-25T04:38:44.988Z,21.40
2022-08-25T04:41:14.013Z,21.32
2022-08-25T04:43:41.977Z,21.31
2022-08-25T04:46:12.325Z,21.24
2022-08-25T04:48:42.480Z,21.23
2022-08-25T04:51:12.440Z,21.28
2022-08-25T04:53:39.910Z,21.26
2022-08-25T04:56:08.571Z,21.18
2022-08-25T04:58:36.229Z,21.24
2022-08-25T05:01:04.472Z,21.29
2022-08-25T05:03:31.225Z,21.29
2022-08-25T05:05:58.214Z,21.36
2022-08-25T05:08:24.941Z,21.31
2022-08-25T05:10:54.453Z,21.36
2022-08-25T05:13:21.578Z,21.29
2022-08-25T05:16:00.213Z,21.29
2022-08-25T05:18:30.805Z,21.30
2022-08-25T05:21:02.722Z,21.30
2022-08-25T05:23:29.349Z,21.34
2022-08-25T05:25:56.526Z,21.29
2022-08-25T05:28:23.238Z,21.22
2022-08-25T05:30:50.202Z,21.21
2022-08-25T05:33:18.381Z,21.24
2022-08-25T05:35:45.147Z,21.28
2022-08-25T05:38:15.259Z,21.29
2022-08-25T05:40:42.453Z,21.35
2022-08-25T05:43:09.266Z,21.40
2022-08-25T05:45:36.485Z,21.39
2022-08-25T05:48:03.501Z,21.54
2022-08-25T05:50:30.566Z,21.62
2022-08-25T05:52:57.170Z,21.64
2022-08-25T05:55:23.846Z,21.69
2022-08-25T05:57:50.907Z,21.75
2022-08-25T06:00:18.731Z,21.78
2022-08-25T06:02:46.357Z,21.80
2022-08-25T06:05:17.479Z,21.91
2022-08-25T06:07:45.645Z,21.96
2022-08-25T06:10:13.738Z,21.99
2022-08-25T06:12:44.617Z,21.77
2022-08-25T06:15:18.088Z,21.79
2022-08-25T06:17:45.371Z,21.88
2022-08-25T06:20:18.434Z,21.94
2022-08-25T06:22:49.618Z,21.98
2022-08-25T06:25:19.848Z,22.03
2022-08-25T06:27:46.921Z,22.11
2022-08-25T06:30:16.295Z,22.17
2022-08-25T06:32:45.430Z,22.21
2022-08-25T06:35:15.023Z,22.27
2022-08-25T06:37:42.541Z,22.36
2022-08-25T06:40:11.262Z,22.42
2022-08-25T06:42:38.030Z,22.47
2022-08-25T06:45:05.911Z,22.54
2022-08-25T06:47:32.675Z,22.60
2022-08-25T06:49:59.267Z,22.58
2022-08-25T06:52:29.277Z,22.62
2022-08-25T06:54:56.322Z,22.66
2022-08-25T06:57:23.154Z,22.69
2022-08-25T06:59:49.840Z,22.74
2022-08-25T07:02:21.776Z,22.80
2022-08-25T07:04:48.923Z,22.79
2022-08-25T07:07:15.567Z,22.87
2022-08-25T07:09:42.154Z,22.92
2022-08-25T07:12:08.835Z,22.98
2022-08-25T07:14:36.524Z,23.01
2022-08-25T07:17:03.784Z,23.02
2022-08-25T07:19:38.924Z,23.13
2022-08-25T07:22:07.609Z,23.18
2022-08-25T07:24:36.264Z,23.23
2022-08-25T07:27:03.235Z,23.27
2022-08-25T07:29:33.253Z,23.36
2022-08-25T07:32:03.945Z,23.41
2022-08-25T07:34:52.177Z,23.37
2022-08-25T07:37:38.255Z,23.38
2022-08-25T07:40:08.978Z,23.43
2022-08-25T07:42:36.049Z,23.44
2022-08-25T07:45:06.086Z,23.52
2022-08-25T07:47:34.108Z,23.42
2022-08-25T07:50:00.863Z,23.43
2022-08-25T07:52:28.194Z,23.53
2022-08-25T07:54:55.556Z,23.59
2022-08-25T07:57:24.039Z,23.63
2022-08-25T07:59:50.693Z,23.64
2022-08-25T08:02:19.395Z,23.72
2022-08-25T08:04:49.391Z,23.75
2022-08-25T08:07:21.400Z,23.82
2022-08-25T08:09:56.055Z,23.94
2022-08-25T08:12:33.947Z,24.05
2022-08-25T08:15:00.945Z,24.10
2022-08-25T08:17:28.235Z,24.06
2022-08-25T08:19:54.806Z,24.13
2022-08-25T08:22:21.434Z,24.13
2022-08-25T08:24:54.774Z,24.18
2022-08-25T08:27:24.111Z,24.21
2022-08-25T08:29:50.945Z,24.28
2022-08-25T08:32:18.674Z,24.40
2022-08-25T08:34:47.058Z,24.47
2022-08-25T08:37:18.513Z,24.52
2022-08-25T08:39:49.558Z,24.57
2022-08-25T08:42:47.571Z,24.60
2022-08-25T08:45:45.545Z,24.68
2022-08-25T08:48:44.530Z,24.72
2022-08-25T08:51:33.107Z,24.76
2022-08-25T08:54:18.643Z,24.83
2022-08-25T08:56:48.665Z,24.87
2022-08-25T08:59:28.788Z,24.89
2022-08-25T09:02:02.772Z,24.91
2022-08-25T09:04:44.284Z,24.94
2022-08-25T09:07:18.199Z,25.01
2022-08-25T09:09:48.230Z,25.03
2022-08-25T09:12:33.540Z,25.21
2022-08-25T09:15:15.273Z,25.20
2022-08-25T09:18:17.081Z,25.34
2022-08-25T09:21:11.812Z,25.48
2022-08-25T09:23:55.858Z,25.46
2022-08-25T09:26:31.692Z,25.49
2022-08-25T09:29:16.741Z,25.55
2022-08-25T09:31:44.834Z,25.63
2022-08-25T09:34:19.230Z,25.69
2022-08-25T09:36:48.464Z,25.69
2022-08-25T09:39:15.464Z,25.69
2022-08-25T09:41:51.299Z,25.78
2022-08-25T09:44:43.956Z,25.87
2022-08-25T09:47:29.980Z,25.90
2022-08-25T09:50:01.653Z,25.93
2022-08-25T09:52:38.466Z,26.02
2022-08-25T09:55:08.105Z,26.09
2022-08-25T09:57:44.774Z,26.16
2022-08-25T10:00:25.961Z,26.32
2022-08-25T10:03:11.759Z,26.37
2022-08-25T10:05:43.651Z,26.49
2022-08-25T10:08:24.690Z,26.59
2022-08-25T10:10:57.462Z,26.70
2022-08-25T10:13:35.641Z,26.71
2022-08-25T10:16:20.166Z,26.77
2022-08-25T10:19:13.235Z,26.87
2022-08-25T10:21:42.587Z,26.89
2022-08-25T10:24:12.535Z,26.99
2022-08-25T10:26:59.907Z,26.96
2022-08-25T10:29:57.798Z,26.96
2022-08-25T10:32:55.640Z,26.96
2022-08-25T10:35:45.740Z,26.98
2022-08-25T10:38:38.496Z,26.88
2022-08-25T10:41:05.388Z,27.00
2022-08-25T10:43:53.311Z,27.25
2022-08-25T10:46:46.231Z,27.44
2022-08-25T10:49:26.825Z,27.50
2022-08-25T10:51:56.555Z,27.59
2022-08-25T10:54:29.086Z,27.62
2022-08-25T10:57:22.401Z,27.60
2022-08-25T11:00:11.881Z,27.58
2022-08-25T11:03:03.968Z,27.64
2022-08-25T11:05:42.981Z,27.66
2022-08-25T11:08:43.997Z,27.61
2022-08-25T11:11:24.333Z,27.60
2022-08-25T11:13:59.081Z,27.65
2022-08-25T11:16:32.038Z,27.67
2022-08-25T11:19:26.898Z,27.68
2022-08-25T11:22:00.656Z,27.64
2022-08-25T11:24:53.233Z,27.62
2022-08-25T11:27:28.579Z,27.57
2022-08-25T11:30:05.886Z,27.58
2022-08-25T11:32:35.598Z,27.62
2022-08-25T11:35:07.088Z,27.74
2022-08-25T11:37:38.237Z,27.79
2022-08-25T11:40:44.429Z,27.92
2022-08-25T11:43:25.547Z,28.11
2022-08-25T11:46:14.060Z,28.18
2022-08-25T11:48:46.530Z,28.25
2022-08-25T11:51:33.729Z,28.17
2022-08-25T11:54:22.304Z,28.20
2022-08-25T11:57:18.264Z,28.19
2022-08-25T11:59:55.803Z,28.20
2022-08-25T12:02:36.456Z,28.16
2022-08-25T12:05:11.957Z,28.12
2022-08-25T12:07:48.103Z,28.19
2022-08-25T12:10:24.238Z,28.31
2022-08-25T12:13:01.799Z,28.35
2022-08-25T12:15:55.329Z,28.25
2022-08-25T12:18:22.908Z,28.31
2022-08-25T12:20:56.371Z,28.41
2022-08-25T12:23:37.904Z,28.53
2022-08-25T12:26:30.150Z,28.66
2022-08-25T12:29:15.650Z,28.84
2022-08-25T12:31:51.925Z,28.81
2022-08-25T12:34:47.275Z,28.64
2022-08-25T12:37:17.084Z,28.76
2022-08-25T12:39:46.748Z,28.80
2022-08-25T12:42:26.181Z,28.78
2022-08-25T12:45:21.667Z,28.79
2022-08-25T12:47:50.148Z,28.83
2022-08-25T12:50:40.862Z,28.83
2022-08-25T12:53:28.624Z,28.84
2022-08-25T12:56:07.484Z,28.92
2022-08-25T12:59:00.829Z,28.91
2022-08-25T13:01:54.576Z,28.93
2022-08-25T13:04:47.406Z,29.01
2022-08-25T13:07:23.524Z,29.03
2022-08-25T13:10:16.306Z,29.04
2022-08-25T13:13:06.186Z,29.17
2022-08-25T13:15:35.632Z,29.29
2022-08-25T13:18:29.034Z,29.16
2022-08-25T13:21:03.388Z,29.02
2022-08-25T13:23:31.420Z,29.19
2022-08-25T13:25:58.562Z,29.25
2022-08-25T13:28:33.442Z,29.19
2022-08-25T13:31:15.155Z,29.23
2022-08-25T13:33:54.705Z,29.25
2022-08-25T13:36:47.035Z,29.29
2022-08-25T13:39:45.221Z,29.47
2022-08-25T13:42:16.043Z,29.46
2022-08-25T13:44:51.959Z,29.48
2022-08-25T13:47:44.983Z,29.51
2022-08-25T13:50:30.955Z,29.43
2022-08-25T13:53:30.522Z,29.45
2022-08-25T13:56:00.738Z,29.44
2022-08-25T13:58:45.154Z,29.56
2022-08-25T14:01:48.971Z,29.66
2022-08-25T14:04:50.680Z,29.62
2022-08-25T14:07:23.362Z,29.62
2022-08-25T14:09:54.480Z,29.54
2022-08-25T14:12:29.776Z,29.48
2022-08-25T14:15:02.466Z,29.55
2022-08-25T14:17:39.851Z,29.69
2022-08-25T14:20:17.930Z,29.76
2022-08-25T14:22:44.695Z,29.81
2022-08-25T14:25:11.273Z,29.81
2022-08-25T14:27:56.831Z,29.77
2022-08-25T14:30:29.596Z,29.82
2022-08-25T14:32:57.037Z,29.82
2022-08-25T14:35:23.709Z,29.84
2022-08-25T14:37:50.857Z,29.85
2022-08-25T14:40:19.984Z,29.86
2022-08-25T14:42:47.569Z,29.85
2022-08-25T14:45:21.933Z,30.00
2022-08-25T14:47:50.260Z,30.01
2022-08-25T14:50:20.178Z,30.04
2022-08-25T14:52:48.320Z,30.10
2022-08-25T14:55:32.194Z,30.08
2022-08-25T14:57:59.893Z,30.08
2022-08-25T15:00:26.678Z,30.09
2022-08-25T15:02:56.393Z,30.11
2022-08-25T15:05:28.493Z,30.18
2022-08-25T15:08:14.497Z,30.19
2022-08-25T15:10:42.201Z,30.16
2022-08-25T15:13:10.565Z,30.19
2022-08-25T15:15:52.728Z,30.13
2022-08-25T15:18:25.826Z,30.17
2022-08-25T15:20:52.964Z,30.19
2022-08-25T15:23:19.874Z,30.25
2022-08-25T15:25:49.124Z,30.30
2022-08-25T15:28:22.307Z,30.37
2022-08-25T15:30:50.224Z,30.36
2022-08-25T15:33:17.466Z,30.33
2022-08-25T15:35:44.114Z,30.38
2022-08-25T15:38:12.819Z,30.38
2022-08-25T15:40:40.041Z,30.31
2022-08-25T15:43:06.886Z,30.34
2022-08-25T15:45:35.855Z,30.28
2022-08-25T15:48:02.847Z,30.19
2022-08-25T15:50:30.162Z,30.27
2022-08-25T15:52:56.910Z,30.30
2022-08-25T15:55:23.657Z,30.23
2022-08-25T15:57:50.580Z,30.25
2022-08-25T16:00:18.285Z,30.28
2022-08-25T16:02:46.242Z,30.19
2022-08-25T16:05:13.896Z,30.18
2022-08-25T16:07:51.654Z,30.22
2022-08-25T16:10:18.797Z,30.22
2022-08-25T16:12:46.013Z,30.19
2022-08-25T16:15:12.837Z,30.19
2022-08-25T16:17:40.965Z,30.19
2022-08-25T16:20:12.648Z,30.18
2022-08-25T16:22:41.251Z,30.08
2022-08-25T16:25:08.494Z,30.09
2022-08-25T16:27:38.712Z,30.10
2022-08-25T16:30:15.006Z,30.07
2022-08-25T16:32:44.552Z,30.01
2022-08-25T16:35:11.522Z,30.04
2022-08-25T16:37:39.984Z,30.01
2022-08-25T16:40:08.083Z,29.98
2022-08-25T16:42:35.129Z,29.99
2022-08-25T16:45:01.750Z,29.94
2022-08-25T16:47:34.439Z,29.91
2022-08-25T16:50:01.893Z,29.86
2022-08-25T16:52:47.434Z,29.80
2022-08-25T16:55:16.491Z,29.66
2022-08-25T16:57:49.546Z,29.54
2022-08-25T17:00:19.406Z,29.30
2022-08-25T17:02:46.422Z,29.09
2022-08-25T17:05:14.505Z,29.02
2022-08-25T17:07:41.540Z,28.90
2022-08-25T17:10:12.736Z,28.62
2022-08-25T17:12:39.677Z,28.54
2022-08-25T17:15:07.752Z,28.46
2022-08-25T17:17:36.360Z,28.33
2022-08-25T17:20:04.826Z,28.15
2022-08-25T17:22:31.826Z,27.95
2022-08-25T17:25:00.958Z,27.94
2022-08-25T17:27:28.021Z,27.69
2022-08-25T17:29:55.876Z,27.60
2022-08-25T17:32:28.708Z,27.55
2022-08-25T17:34:57.794Z,27.43
2022-08-25T17:37:24.596Z,27.38
2022-08-25T17:40:02.864Z,27.37
2022-08-25T17:42:31.653Z,27.21
2022-08-25T17:44:58.380Z,27.14
2022-08-25T17:47:27.133Z,27.06
2022-08-25T17:49:54.045Z,27.04
2022-08-25T17:52:25.659Z,27.02
2022-08-25T17:54:52.646Z,26.91
2022-08-25T17:57:19.757Z,26.95
2022-08-25T17:59:48.205Z,26.87
2022-08-25T18:02:14.954Z,26.71
2022-08-25T18:04:42.574Z,26.55
2022-08-25T18:07:10.265Z,26.48
2022-08-25T18:09:37.041Z,26.36
2022-08-25T18:12:04.258Z,26.44
2022-08-25T18:14:31.016Z,26.44
2022-08-25T18:16:57.733Z,26.49
2022-08-25T18:19:24.478Z,26.44
2022-08-25T18:21:51.855Z,26.42
2022-08-25T18:24:19.431Z,26.42
2022-08-25T18:26:46.867Z,26.46
2022-08-25T18:29:14.067Z,26.37
2022-08-25T18:31:46.511Z,26.38
2022-08-25T18:34:15.108Z,26.57
2022-08-25T18:36:41.805Z,26.52
2022-08-25T18:39:28.764Z,26.66
2022-08-25T18:42:01.165Z,26.60
2022-08-25T18:44:28.968Z,26.58
2022-08-25T18:46:55.742Z,26.55
2022-08-25T18:49:22.390Z,26.45
2022-08-25T18:51:54.246Z,26.52
2022-08-25T18:54:23.133Z,26.53
2022-08-25T18:56:52.770Z,26.44
2022-08-25T18:59:20.159Z,26.37
2022-08-25T19:01:51.448Z,26.18
2022-08-25T19:04:18.259Z,26.08
2022-08-25T19:06:45.094Z,26.16
2022-08-25T19:09:11.997Z,26.15
2022-08-25T19:11:38.757Z,26.15
2022-08-25T19:14:12.261Z,26.16
2022-08-25T19:16:40.882Z,26.20
2022-08-25T19:19:11.669Z,26.21
2022-08-25T19:21:39.696Z,26.09
2022-08-25T19:24:34.387Z,25.94
2022-08-25T19:27:02.514Z,25.95
2022-08-25T19:29:31.257Z,25.89
2022-08-25T19:32:01.012Z,25.57
2022-08-25T19:34:32.250Z,25.77
2022-08-25T19:37:00.754Z,25.86
2022-08-25T19:39:27.771Z,25.87
2022-08-25T19:41:56.414Z,25.82
2022-08-25T19:44:23.534Z,25.94
2022-08-25T19:46:51.384Z,25.91
2022-08-25T19:49:22.940Z,25.67
2022-08-25T19:51:52.254Z,25.69
2022-08-25T19:54:24.527Z,25.76
2022-08-25T19:56:54.464Z,25.71
2022-08-25T19:59:34.386Z,25.54
2022-08-25T20:02:15.237Z,25.69
2022-08-25T20:04:49.606Z,25.64
2022-08-25T20:07:23.786Z,25.63
2022-08-25T20:09:51.693Z,25.63
2022-08-25T20:12:20.229Z,25.51
2022-08-25T20:14:51.127Z,25.57
2022-08-25T20:17:23.732Z,25.50
2022-08-25T20:19:57.115Z,25.41
2022-08-25T20:22:30.468Z,25.24
2022-08-25T20:25:07.601Z,25.19
2022-08-25T20:27:43.430Z,25.19
2022-08-25T20:30:22.393Z,25.35
2022-08-25T20:32:50.294Z,25.39
2022-08-25T20:35:17.796Z,25.43
2022-08-25T20:37:46.281Z,25.48
2022-08-25T20:40:16.281Z,25.41
2022-08-25T20:42:44.389Z,25.45
2022-08-25T20:45:13.953Z,25.48
2022-08-25T20:47:40.890Z,25.49
2022-08-25T20:50:08.944Z,25.46
2022-08-25T20:52:39.187Z,25.22
2022-08-25T20:55:10.126Z,25.18
2022-08-25T20:57:37.046Z,25.03
2022-08-25T21:00:05.070Z,25.09
2022-08-25T21:02:31.718Z,25.16
2022-08-25T21:04:58.384Z,25.19
2022-08-25T21:07:25.530Z,25.25
2022-08-25T21:09:52.258Z,25.19
2022-08-25T21:12:20.306Z,25.15
2022-08-25T21:14:48.239Z,25.22
2022-08-25T21:17:15.765Z,25.25
2022-08-25T21:19:46.522Z,25.20
2022-08-25T21:22:13.191Z,25.30
2022-08-25T21:24:39.925Z,25.20
2022-08-25T21:27:06.898Z,25.15
2022-08-25T21:29:34.098Z,25.14
2022-08-25T21:32:01.538Z,25.13
2022-08-25T21:34:29.326Z,25.15
2022-08-25T21:36:58.014Z,25.20
2022-08-25T21:39:27.555Z,25.19
2022-08-25T21:41:55.262Z,25.18
2022-08-25T21:44:22.228Z,25.14
2022-08-25T21:46:54.104Z,25.10
2022-08-25T21:49:22.453Z,24.99
2022-08-25T21:51:59.139Z,24.89
2022-08-25T21:54:26.837Z,24.91
2022-08-25T21:57:03.674Z,24.95
2022-08-25T21:59:32.935Z,25.00
2022-08-25T22:02:03.161Z,25.04
2022-08-25T22:04:30.713Z,24.97
2022-08-25T22:06:58.422Z,25.01
2022-08-25T22:09:28.395Z,24.95
2022-08-25T22:11:55.695Z,24.96
2022-08-25T22:14:23.487Z,24.92
2022-08-25T22:16:51.935Z,24.91
2022-08-25T22:19:18.834Z,24.89
2022-08-25T22:21:45.566Z,24.87
2022-08-25T22:24:12.570Z,24.87
2022-08-25T22:26:40.323Z,24.87
2022-08-25T22:29:08.708Z,24.91
2022-08-25T22:31:36.554Z,24.85
2022-08-25T22:34:04.551Z,24.68
2022-08-25T22:36:36.570Z,24.64
2022-08-25T22:39:08.275Z,24.54
2022-08-25T22:41:35.425Z,24.61
2022-08-25T22:44:08.936Z,24.53
2022-08-25T22:46:36.029Z,24.55
2022-08-25T22:49:02.786Z,24.56
2022-08-25T22:51:32.794Z,24.48
2022-08-25T22:54:01.710Z,24.50
2022-08-25T22:56:34.389Z,24.54
2022-08-25T22:59:07.317Z,24.58
2022-08-25T23:01:34.999Z,24.47
2022-08-25T23:04:04.094Z,24.46
2022-08-25T23:06:31.749Z,24.45
2022-08-25T23:08:58.748Z,24.32
2022-08-25T23:11:25.871Z,24.37
2022-08-25T23:14:00.638Z,24.35
2022-08-25T23:16:28.499Z,24.23
2022-08-25T23:18:55.988Z,24.26
2022-08-25T23:21:43.072Z,24.09
2022-08-25T23:24:12.283Z,24.06
2022-08-25T23:26:42.408Z,24.08
2022-08-25T23:29:18.772Z,24.10
2022-08-25T23:31:47.167Z,24.18
2022-08-25T23:34:16.177Z,24.18
2022-08-25T23:36:43.474Z,24.18
2022-08-25T23:39:11.352Z,24.17
2022-08-25T23:41:38.444Z,24.16
2022-08-25T23:44:06.209Z,24.15
2022-08-25T23:46:35.438Z,24.15
2022-08-25T23:49:03.993Z,24.14
2022-08-25T23:51:34.163Z,24.12
2022-08-25T23:54:09.317Z,24.17
2022-08-25T23:56:44.865Z,24.03
2022-08-25T23:59:24.751Z,24.02
